Nisijima — JD3962 — position and weather

sailwx.info

Track history (hours):
 
Tides and Currents Weather Stations Pressure Air Temp Water Temp Dewpoint Dewpoint Depression Visibility Wind Speed Wind Dir Waves Ship Positions

Nisijima

Last reported at 2017-Dec-11 16:59 UTC. Time now 2017-Dec-12 15:41 UTC.
Position N 34°40' E 135°27'.

Length 74 m.

Type: Ship. MMSI: 431007231.

Date/timePositionNaut miles runAvg speedWind from/ knotsBaromVisibWave heightAir tempDewpointWater temp
2017-Dec-11 16:59N 34°40' E 135°27'0 0.0
2017-Dec-11 16:29N 34°40' E 135°27'0 0.0
2017-Dec-11 15:59N 34°40' E 135°27'0 0.0
2017-Dec-11 15:29N 34°40' E 135°27'0 0.0
2017-Dec-11 14:59N 34°40' E 135°27'0 0.0
2017-Dec-11 14:29N 34°40' E 135°27'0 0.0
2017-Dec-11 13:59N 34°40' E 135°27'0 0.0
2017-Dec-11 13:29N 34°40' E 135°27'0 0.0
2017-Dec-11 12:59N 34°40' E 135°27'0 0.0
2017-Dec-11 12:29N 34°40' E 135°27'0 0.0
2017-Dec-11 11:59N 34°40' E 135°27'0 0.0
2017-Dec-11 11:29N 34°40' E 135°27'0 0.0
2017-Dec-11 10:59N 34°40' E 135°27'0 0.0
2017-Dec-11 10:29N 34°40' E 135°27'0 0.0
2017-Dec-11 09:59N 34°40' E 135°27'0 0.0
2017-Dec-11 09:29N 34°40' E 135°27'0 0.0
2017-Dec-11 08:59N 34°40' E 135°27'0 0.0
2017-Dec-11 08:29N 34°40' E 135°27'0 0.0
2017-Dec-11 07:59N 34°40' E 135°27'0 0.0
2017-Dec-11 07:29N 34°40' E 135°27'0 0.0
2017-Dec-11 06:50N 34°40' E 135°27'0 0.0
2017-Dec-11 06:29N 34°40' E 135°27'0 0.0
2017-Dec-11 05:59N 34°40' E 135°27'0 0.0
2017-Dec-11 05:29N 34°40' E 135°27'0 0.0
2017-Dec-11 04:59N 34°40' E 135°27'0 0.0
2017-Dec-11 04:29N 34°40' E 135°27'0 0.0
2017-Dec-11 03:59N 34°40' E 135°27'0 0.0
2017-Dec-11 03:29N 34°40' E 135°27'0 0.0
2017-Dec-11 02:59N 34°40' E 135°27'0 0.0
2017-Dec-11 02:29N 34°40' E 135°27'0 0.0
2017-Dec-11 01:59N 34°40' E 135°27'2 3.7
2017-Dec-11 01:30N 34°39' E 135°27'0 0.3
2017-Dec-11 01:00N 34°39' E 135°27'0 0.0
2017-Dec-11 00:30N 34°39' E 135°27'0 0.0
2017-Dec-11 00:00N 34°39' E 135°27'0 0.0
2017-Dec-10 23:30N 34°39' E 135°27'0 0.0
2017-Dec-10 23:00N 34°39' E 135°27'0 0.0
2017-Dec-10 22:30N 34°39' E 135°27'0 0.0
2017-Dec-10 22:00N 34°39' E 135°27'0 0.1
2017-Dec-10 21:30N 34°39' E 135°27'4 7.8
2017-Dec-10 21:00N 34°38' E 135°22'611.2
2017-Dec-10 20:30N 34°36' E 135°16'612.0
2017-Dec-10 20:00N 34°34' E 135°09'611.9
2017-Dec-10 19:30N 34°36' E 135°03'510.9
2017-Dec-10 19:00N 34°36' E 134°56'611.5
2017-Dec-10 18:30N 34°39' E 134°50'611.7
2017-Dec-10 17:59N 34°42' E 134°44'  
2017-Dec-08 06:29N 34°39' E 134°42'612.2
2017-Dec-08 06:00N 34°38' E 134°49'612.6
2017-Dec-08 05:30N 34°38' E 134°56'713.5
2017-Dec-08 05:00N 34°36' E 135°04'612.8
2017-Dec-08 04:30N 34°36' E 135°12'713.0
2017-Dec-08 04:00N 34°37' E 135°20'612.3
2017-Dec-08 03:30N 34°35' E 135°27'0 0.2
2017-Dec-08 02:55N 34°35' E 135°27'0 0.0
2017-Dec-08 02:30N 34°35' E 135°27'3 6.4
2017-Dec-08 02:00N 34°37' E 135°24'3 6.4
2017-Dec-08 01:28N 34°39' E 135°27'0 0.0
2017-Dec-08 00:58N 34°39' E 135°27'0 0.0
2017-Dec-08 00:28N 34°39' E 135°27'0 0.0
2017-Dec-07 23:58N 34°39' E 135°27'0 0.0
2017-Dec-07 23:28N 34°39' E 135°27'0 0.0
2017-Dec-07 22:58N 34°39' E 135°27'0 0.0
2017-Dec-07 22:25N 34°39' E 135°27'0 0.0
2017-Dec-07 21:55N 34°39' E 135°27'0 0.1
2017-Dec-07 21:30N 34°39' E 135°27'2 4.2
2017-Dec-07 21:00N 34°39' E 135°25'4 8.6
2017-Dec-07 20:30N 34°38' E 135°19'611.7
2017-Dec-07 20:00N 34°35' E 135°13'713.2
2017-Dec-07 19:30N 34°35' E 135°05'814.9
2017-Dec-07 19:00N 34°36' E 134°56'714.8
2017-Dec-07 18:30N 34°38' E 134°47'9 0.8
2017-Dec-07 07:04N 34°39' E 134°37'212.7
2017-Dec-07 06:54N 34°39' E 134°39'512.4
2017-Dec-07 06:29N 34°38' E 134°46'611.7
2017-Dec-07 06:00N 34°38' E 134°52'611.9
2017-Dec-07 05:30N 34°38' E 134°60'612.5
2017-Dec-07 05:00N 34°36' E 135°07'713.4
2017-Dec-07 04:30N 34°34' E 135°15'713.2
2017-Dec-07 04:00N 34°32' E 135°22'1 2.0
2017-Dec-07 03:31N 34°31' E 135°23'0 0.0
2017-Dec-07 03:00N 34°31' E 135°23'0 0.0
2017-Dec-07 02:30N 34°31' E 135°23'0 0.0
2017-Dec-07 02:00N 34°31' E 135°23'0 0.0
2017-Dec-07 01:30N 34°31' E 135°23'0 0.5
2017-Dec-07 01:00N 34°32' E 135°23'4 8.9
2017-Dec-07 00:30N 34°36' E 135°24'3 5.4
2017-Dec-06 23:59N 34°35' E 135°27'0 0.0
2017-Dec-06 23:29N 34°35' E 135°27'0 0.0
2017-Dec-06 22:59N 34°35' E 135°27'0 0.0
2017-Dec-06 22:29N 34°35' E 135°27'0 0.0
2017-Dec-06 21:59N 34°35' E 135°27'0 0.0
2017-Dec-06 21:29N 34°35' E 135°27'0 0.0
2017-Dec-06 20:59N 34°35' E 135°27'  
2017-Dec-04 10:23N 34°40' E 135°27'0 0.0
2017-Dec-04 09:56N 34°40' E 135°27'0 0.0
2017-Dec-04 09:29N 34°40' E 135°27'0 0.0
2017-Dec-04 08:59N 34°40' E 135°27'0 0.0
2017-Dec-04 08:29N 34°40' E 135°27'0 0.0
2017-Dec-04 07:59N 34°40' E 135°27'0 0.0
2017-Dec-04 07:29N 34°40' E 135°27'0 0.0
2017-Dec-04 06:56N 34°40' E 135°27'0 0.0
2017-Dec-04 06:29N 34°40' E 135°27'0 0.0
2017-Dec-04 05:59N 34°40' E 135°27'0 0.0
2017-Dec-04 05:26N 34°40' E 135°27'0 0.0
2017-Dec-04 04:56N 34°40' E 135°27'0 0.0
2017-Dec-04 04:29N 34°40' E 135°27'0 0.0
2017-Dec-04 03:59N 34°40' E 135°27'0 0.0
2017-Dec-04 03:29N 34°40' E 135°27'0 0.0
2017-Dec-04 02:59N 34°40' E 135°27'2 4.7
2017-Dec-04 02:30N 34°39' E 135°25'510.2
2017-Dec-04 02:00N 34°34' E 135°23'3 6.1
2017-Dec-04 01:28N 34°32' E 135°25'0 0.0
2017-Dec-04 00:58N 34°32' E 135°25'0 0.0
2017-Dec-04 00:28N 34°32' E 135°25'0 0.0
2017-Dec-03 23:58N 34°32' E 135°25'0 0.0
2017-Dec-03 23:28N 34°32' E 135°25'0 0.0
2017-Dec-03 22:58N 34°32' E 135°25'0 0.0
2017-Dec-03 22:28N 34°32' E 135°25'0 0.0
2017-Dec-03 21:58N 34°32' E 135°25'0 0.0
2017-Dec-03 21:28N 34°32' E 135°25'0 0.0
2017-Dec-03 20:58N 34°32' E 135°25'0 0.0
2017-Dec-03 20:28N 34°32' E 135°25'0 0.0
2017-Dec-03 19:58N 34°32' E 135°25'2 4.7
2017-Dec-03 19:30N 34°32' E 135°23'611.5
2017-Dec-03 19:00N 34°33' E 135°16'612.2
2017-Dec-03 18:30N 34°34' E 135°09'714.9
2017-Dec-03 18:00N 34°37' E 135°01'814.4
2017-Dec-03 17:29N 34°37' E 134°51'913.1
2017-Dec-03 16:49N 34°40' E 134°41'  
Track history (hours):
 
Tides and Currents Weather Stations Pressure Air Temp Water Temp Dewpoint Dewpoint Depression Visibility Wind Speed Wind Dir Waves Ship Positions

Nisijima

Last reported at 2017-Dec-11 16:59 UTC. Time now 2017-Dec-12 15:41 UTC.
Position N 34°40' E 135°27'.

Length 74 m.

Type: Ship. MMSI: 431007231.

Date/timePositionNaut miles runAvg speedWind from/ knotsBaromVisibWave heightAir tempDewpointWater temp
2017-Dec-11 16:59N 34°40' E 135°27'0 0.0
2017-Dec-11 16:29N 34°40' E 135°27'0 0.0
2017-Dec-11 15:59N 34°40' E 135°27'0 0.0
2017-Dec-11 15:29N 34°40' E 135°27'0 0.0
2017-Dec-11 14:59N 34°40' E 135°27'0 0.0
2017-Dec-11 14:29N 34°40' E 135°27'0 0.0
2017-Dec-11 13:59N 34°40' E 135°27'0 0.0
2017-Dec-11 13:29N 34°40' E 135°27'0 0.0
2017-Dec-11 12:59N 34°40' E 135°27'0 0.0
2017-Dec-11 12:29N 34°40' E 135°27'0 0.0
2017-Dec-11 11:59N 34°40' E 135°27'0 0.0
2017-Dec-11 11:29N 34°40' E 135°27'0 0.0
2017-Dec-11 10:59N 34°40' E 135°27'0 0.0
2017-Dec-11 10:29N 34°40' E 135°27'0 0.0
2017-Dec-11 09:59N 34°40' E 135°27'0 0.0
2017-Dec-11 09:29N 34°40' E 135°27'0 0.0
2017-Dec-11 08:59N 34°40' E 135°27'0 0.0
2017-Dec-11 08:29N 34°40' E 135°27'0 0.0
2017-Dec-11 07:59N 34°40' E 135°27'0 0.0
2017-Dec-11 07:29N 34°40' E 135°27'0 0.0
2017-Dec-11 06:50N 34°40' E 135°27'0 0.0
2017-Dec-11 06:29N 34°40' E 135°27'0 0.0
2017-Dec-11 05:59N 34°40' E 135°27'0 0.0
2017-Dec-11 05:29N 34°40' E 135°27'0 0.0
2017-Dec-11 04:59N 34°40' E 135°27'0 0.0
2017-Dec-11 04:29N 34°40' E 135°27'0 0.0
2017-Dec-11 03:59N 34°40' E 135°27'0 0.0
2017-Dec-11 03:29N 34°40' E 135°27'0 0.0
2017-Dec-11 02:59N 34°40' E 135°27'0 0.0
2017-Dec-11 02:29N 34°40' E 135°27'0 0.0
2017-Dec-11 01:59N 34°40' E 135°27'2 3.7
2017-Dec-11 01:30N 34°39' E 135°27'0 0.3
2017-Dec-11 01:00N 34°39' E 135°27'0 0.0
2017-Dec-11 00:30N 34°39' E 135°27'0 0.0
2017-Dec-11 00:00N 34°39' E 135°27'0 0.0
2017-Dec-10 23:30N 34°39' E 135°27'0 0.0
2017-Dec-10 23:00N 34°39' E 135°27'0 0.0
2017-Dec-10 22:30N 34°39' E 135°27'0 0.0
2017-Dec-10 22:00N 34°39' E 135°27'0 0.1
2017-Dec-10 21:30N 34°39' E 135°27'4 7.8
2017-Dec-10 21:00N 34°38' E 135°22'611.2
2017-Dec-10 20:30N 34°36' E 135°16'612.0
2017-Dec-10 20:00N 34°34' E 135°09'611.9
2017-Dec-10 19:30N 34°36' E 135°03'510.9
2017-Dec-10 19:00N 34°36' E 134°56'611.5
2017-Dec-10 18:30N 34°39' E 134°50'611.7
2017-Dec-10 17:59N 34°42' E 134°44'  
2017-Dec-08 06:29N 34°39' E 134°42'612.2
2017-Dec-08 06:00N 34°38' E 134°49'612.6
2017-Dec-08 05:30N 34°38' E 134°56'713.5
2017-Dec-08 05:00N 34°36' E 135°04'612.8
2017-Dec-08 04:30N 34°36' E 135°12'713.0
2017-Dec-08 04:00N 34°37' E 135°20'612.3
2017-Dec-08 03:30N 34°35' E 135°27'0 0.2
2017-Dec-08 02:55N 34°35' E 135°27'0 0.0
2017-Dec-08 02:30N 34°35' E 135°27'3 6.4
2017-Dec-08 02:00N 34°37' E 135°24'3 6.4
2017-Dec-08 01:28N 34°39' E 135°27'0 0.0
2017-Dec-08 00:58N 34°39' E 135°27'0 0.0
2017-Dec-08 00:28N 34°39' E 135°27'0 0.0
2017-Dec-07 23:58N 34°39' E 135°27'0 0.0
2017-Dec-07 23:28N 34°39' E 135°27'0 0.0
2017-Dec-07 22:58N 34°39' E 135°27'0 0.0
2017-Dec-07 22:25N 34°39' E 135°27'0 0.0
2017-Dec-07 21:55N 34°39' E 135°27'0 0.1
2017-Dec-07 21:30N 34°39' E 135°27'2 4.2
2017-Dec-07 21:00N 34°39' E 135°25'4 8.6
2017-Dec-07 20:30N 34°38' E 135°19'611.7
2017-Dec-07 20:00N 34°35' E 135°13'713.2
2017-Dec-07 19:30N 34°35' E 135°05'814.9
2017-Dec-07 19:00N 34°36' E 134°56'714.8
2017-Dec-07 18:30N 34°38' E 134°47'9 0.8
2017-Dec-07 07:04N 34°39' E 134°37'212.7
2017-Dec-07 06:54N 34°39' E 134°39'512.4
2017-Dec-07 06:29N 34°38' E 134°46'611.7
2017-Dec-07 06:00N 34°38' E 134°52'611.9
2017-Dec-07 05:30N 34°38' E 134°60'612.5
2017-Dec-07 05:00N 34°36' E 135°07'713.4
2017-Dec-07 04:30N 34°34' E 135°15'713.2
2017-Dec-07 04:00N 34°32' E 135°22'1 2.0
2017-Dec-07 03:31N 34°31' E 135°23'0 0.0
2017-Dec-07 03:00N 34°31' E 135°23'0 0.0
2017-Dec-07 02:30N 34°31' E 135°23'0 0.0
2017-Dec-07 02:00N 34°31' E 135°23'0 0.0
2017-Dec-07 01:30N 34°31' E 135°23'0 0.5
2017-Dec-07 01:00N 34°32' E 135°23'4 8.9
2017-Dec-07 00:30N 34°36' E 135°24'3 5.4
2017-Dec-06 23:59N 34°35' E 135°27'0 0.0
2017-Dec-06 23:29N 34°35' E 135°27'0 0.0
2017-Dec-06 22:59N 34°35' E 135°27'0 0.0
2017-Dec-06 22:29N 34°35' E 135°27'0 0.0
2017-Dec-06 21:59N 34°35' E 135°27'0 0.0
2017-Dec-06 21:29N 34°35' E 135°27'0 0.0
2017-Dec-06 20:59N 34°35' E 135°27'  
2017-Dec-04 10:23N 34°40' E 135°27'0 0.0
2017-Dec-04 09:56N 34°40' E 135°27'0 0.0
2017-Dec-04 09:29N 34°40' E 135°27'0 0.0
2017-Dec-04 08:59N 34°40' E 135°27'0 0.0
2017-Dec-04 08:29N 34°40' E 135°27'0 0.0
2017-Dec-04 07:59N 34°40' E 135°27'0 0.0
2017-Dec-04 07:29N 34°40' E 135°27'0 0.0
2017-Dec-04 06:56N 34°40' E 135°27'0 0.0
2017-Dec-04 06:29N 34°40' E 135°27'0 0.0
2017-Dec-04 05:59N 34°40' E 135°27'0 0.0
2017-Dec-04 05:26N 34°40' E 135°27'0 0.0
2017-Dec-04 04:56N 34°40' E 135°27'0 0.0
2017-Dec-04 04:29N 34°40' E 135°27'0 0.0
2017-Dec-04 03:59N 34°40' E 135°27'0 0.0
2017-Dec-04 03:29N 34°40' E 135°27'0 0.0
2017-Dec-04 02:59N 34°40' E 135°27'2 4.7
2017-Dec-04 02:30N 34°39' E 135°25'510.2
2017-Dec-04 02:00N 34°34' E 135°23'3 6.1
2017-Dec-04 01:28N 34°32' E 135°25'0 0.0
2017-Dec-04 00:58N 34°32' E 135°25'0 0.0
2017-Dec-04 00:28N 34°32' E 135°25'0 0.0
2017-Dec-03 23:58N 34°32' E 135°25'0 0.0
2017-Dec-03 23:28N 34°32' E 135°25'0 0.0
2017-Dec-03 22:58N 34°32' E 135°25'0 0.0
2017-Dec-03 22:28N 34°32' E 135°25'0 0.0
2017-Dec-03 21:58N 34°32' E 135°25'0 0.0
2017-Dec-03 21:28N 34°32' E 135°25'0 0.0
2017-Dec-03 20:58N 34°32' E 135°25'0 0.0
2017-Dec-03 20:28N 34°32' E 135°25'0 0.0
2017-Dec-03 19:58N 34°32' E 135°25'2 4.7
2017-Dec-03 19:30N 34°32' E 135°23'611.5
2017-Dec-03 19:00N 34°33' E 135°16'612.2
2017-Dec-03 18:30N 34°34' E 135°09'714.9
2017-Dec-03 18:00N 34°37' E 135°01'814.4
2017-Dec-03 17:29N 34°37' E 134°51'913.1
2017-Dec-03 16:49N 34°40' E 134°41'  

Dump ship's entire track history